Terminal Aerodrome Forecast
Issued by NWS Omaha/Valley, NE

Home | Current Version | Previous Version | Text Only | Print | Product List | Glossary On
Versions: 1 2 3 4 5 6 7 8 9 10 11 12 13 14 15 16 17 18 19 20 21 22 23 24 25 26 27 28 29 30 31 32 33 34 35 36 37
000
FTUS43 KOAX 022325
TAFOFK
TAF
KOFK 022325Z 0300/0324 16014G21KT P6SM SCT040
     FM030200 15012KT P6SM BKN150
      TEMPO 0307/0310 VRB15G25KT 3SM TSRA BR OVC025CB
     FM031000 16009KT P6SM OVC015
     FM031500 15010KT P6SM BKN040 PROB30 0319/0322 VRB15G25KT 5SM
      TSRA BKN025CB=

USA.gov is the U.S. government's official web portal to all federal, state and local government web resources and services.